createdAt,value
2023-05-31T00:01:14.055Z,101088.70
2023-05-31T00:03:26.755Z,101089.05
2023-05-31T00:05:39.250Z,101088.39
2023-05-31T00:07:52.053Z,101087.86
2023-05-31T00:10:04.652Z,101086.76
2023-05-31T00:12:17.349Z,101088.58
2023-05-31T00:14:30.319Z,101089.65
2023-05-31T00:17:12.312Z,101089.02
2023-05-31T00:19:16.552Z,101092.94
2023-05-31T00:21:29.207Z,101090.50
2023-05-31T00:23:41.886Z,101088.77
2023-05-31T00:25:55.687Z,101087.71
2023-05-31T00:28:09.248Z,101091.25
2023-05-31T00:30:22.802Z,101088.55
2023-05-31T00:32:35.455Z,101088.80
2023-05-31T00:34:48.246Z,101085.39
2023-05-31T00:37:01.031Z,101078.04
2023-05-31T00:39:14.076Z,101079.92
2023-05-31T00:41:27.678Z,101081.70
2023-05-31T00:43:40.129Z,101077.95
2023-05-31T00:45:53.281Z,101080.70
2023-05-31T00:48:06.147Z,101082.61
2023-05-31T00:50:19.156Z,101076.30
2023-05-31T00:52:33.467Z,101077.25
2023-05-31T00:54:45.939Z,101074.55
2023-05-31T00:56:59.008Z,101078.46
2023-05-31T00:59:12.240Z,101072.64
2023-05-31T01:01:28.693Z,101072.23
2023-05-31T01:03:41.481Z,101070.92
2023-05-31T01:05:54.747Z,101068.27
2023-05-31T01:08:07.293Z,101067.81
2023-05-31T01:10:20.938Z,101066.89
2023-05-31T01:12:43.784Z,101067.12
2023-05-31T01:15:11.056Z,101060.89
2023-05-31T01:17:33.329Z,101057.00
2023-05-31T01:19:56.796Z,101057.69
2023-05-31T01:22:23.396Z,101057.56
2023-05-31T01:24:45.984Z,101056.73
2023-05-31T01:27:03.905Z,101054.92
2023-05-31T01:29:21.509Z,101055.48
2023-05-31T01:31:36.029Z,101055.20
2023-05-31T01:33:51.008Z,101054.30
2023-05-31T01:36:05.560Z,101055.57
2023-05-31T01:38:18.952Z,101055.41
2023-05-31T01:40:32.510Z,101055.48
2023-05-31T01:42:46.882Z,101063.37
2023-05-31T01:45:02.390Z,101063.94
2023-05-31T01:47:16.308Z,101066.84
2023-05-31T01:49:29.857Z,101067.52
2023-05-31T01:51:46.460Z,101072.30
2023-05-31T01:54:01.098Z,101067.18
2023-05-31T01:56:15.095Z,101067.17
2023-05-31T01:58:29.917Z,101066.21
2023-05-31T02:00:44.892Z,101067.73
2023-05-31T02:02:57.963Z,101070.44
2023-05-31T02:05:15.331Z,101070.70
2023-05-31T02:07:27.954Z,101070.36
2023-05-31T02:09:40.588Z,101065.56
2023-05-31T02:11:53.704Z,101067.04
2023-05-31T02:14:06.188Z,101066.23
2023-05-31T02:16:18.932Z,101070.20
2023-05-31T02:18:32.473Z,101068.59
2023-05-31T02:20:46.592Z,101071.98
2023-05-31T02:23:03.485Z,101072.26
2023-05-31T02:25:18.899Z,101070.80
2023-05-31T02:27:32.993Z,101069.90
2023-05-31T02:29:45.739Z,101072.41
2023-05-31T02:31:58.614Z,101074.46
2023-05-31T02:34:11.722Z,101069.79
2023-05-31T02:36:24.528Z,101075.34
2023-05-31T02:38:36.977Z,101076.23
2023-05-31T02:40:49.911Z,101075.48
2023-05-31T02:43:02.581Z,101078.04
2023-05-31T02:45:16.349Z,101079.24
2023-05-31T02:47:29.305Z,101081.36
2023-05-31T02:49:41.836Z,101087.79
2023-05-31T02:51:55.127Z,101092.50
2023-05-31T02:54:11.040Z,101092.27
2023-05-31T02:56:24.161Z,101092.65
2023-05-31T02:58:57.081Z,101095.64
2023-05-31T03:01:12.977Z,101098.55
2023-05-31T03:03:33.431Z,101094.59
2023-05-31T03:05:51.171Z,101094.46
2023-05-31T03:08:04.478Z,101096.20
2023-05-31T03:10:18.575Z,101105.31
2023-05-31T03:12:31.557Z,101109.83
2023-05-31T03:14:44.233Z,101107.33
2023-05-31T03:16:58.390Z,101110.17
2023-05-31T03:19:11.010Z,101113.48
2023-05-31T03:21:24.499Z,101121.33
2023-05-31T03:23:37.176Z,101123.45
2023-05-31T03:25:50.085Z,101131.52
2023-05-31T03:28:02.973Z,101135.45
2023-05-31T03:30:18.420Z,101135.88
2023-05-31T03:32:37.959Z,101142.52
2023-05-31T03:34:51.007Z,101140.89
2023-05-31T03:37:03.711Z,101146.00
2023-05-31T03:39:28.395Z,101151.00
2023-05-31T03:41:40.911Z,101156.19
2023-05-31T03:43:54.216Z,101162.63
2023-05-31T03:46:06.849Z,101163.77
2023-05-31T03:48:19.710Z,101167.17
2023-05-31T03:50:33.994Z,101173.13
2023-05-31T03:52:49.013Z,101180.75
2023-05-31T03:55:01.988Z,101183.20
2023-05-31T03:57:15.082Z,101187.24
2023-05-31T03:59:27.603Z,101194.69
2023-05-31T04:01:41.931Z,101199.90
2023-05-31T04:03:55.591Z,101198.55
2023-05-31T04:06:08.553Z,101204.70
2023-05-31T04:08:21.502Z,101207.39
2023-05-31T04:10:34.451Z,101212.52
2023-05-31T04:12:47.142Z,101217.80
2023-05-31T04:14:59.957Z,101219.67
2023-05-31T04:17:12.792Z,101225.36
2023-05-31T04:19:25.681Z,101227.23
2023-05-31T04:21:38.428Z,101233.99
2023-05-31T04:23:52.797Z,101235.48
2023-05-31T04:26:06.082Z,101238.45
2023-05-31T04:28:21.183Z,101242.52
2023-05-31T04:30:33.972Z,101241.46
2023-05-31T04:32:46.492Z,101244.35
2023-05-31T04:35:00.405Z,101249.31
2023-05-31T04:37:15.572Z,101252.34
2023-05-31T04:39:28.272Z,101256.70
2023-05-31T04:41:42.607Z,101258.17
2023-05-31T04:43:55.492Z,101265.17
2023-05-31T04:46:11.673Z,101263.33
2023-05-31T04:48:24.932Z,101266.60
2023-05-31T04:50:38.014Z,101272.25
2023-05-31T04:52:53.482Z,101275.30
2023-05-31T04:55:06.315Z,101276.04
2023-05-31T04:57:18.817Z,101277.27
2023-05-31T04:59:32.836Z,101283.05
2023-05-31T05:01:46.804Z,101285.49
2023-05-31T05:04:02.315Z,101287.63
2023-05-31T05:06:21.323Z,101290.40
2023-05-31T05:09:12.533Z,101295.02
2023-05-31T05:11:24.984Z,101297.63
2023-05-31T05:13:37.930Z,101299.37
2023-05-31T05:15:50.647Z,101303.14
2023-05-31T05:18:03.641Z,101306.65
2023-05-31T05:20:17.834Z,101301.50
2023-05-31T05:22:32.102Z,101308.99
2023-05-31T05:24:44.650Z,101307.98
2023-05-31T05:26:57.183Z,101312.02
2023-05-31T05:29:10.060Z,101308.00
2023-05-31T05:31:22.628Z,101313.91
2023-05-31T05:33:37.453Z,101317.04
2023-05-31T05:35:50.451Z,101317.67
2023-05-31T05:38:03.274Z,101317.66
2023-05-31T05:40:17.642Z,101322.73
2023-05-31T05:42:30.359Z,101326.69
2023-05-31T05:44:43.946Z,101323.95
2023-05-31T05:46:58.336Z,101322.59
2023-05-31T05:49:10.824Z,101326.29
2023-05-31T05:51:24.175Z,101330.46
2023-05-31T05:53:37.882Z,101330.70
2023-05-31T05:55:58.401Z,101334.48
2023-05-31T05:58:16.489Z,101339.00
2023-05-31T06:00:48.085Z,101340.04
2023-05-31T06:03:01.221Z,101339.34
2023-05-31T06:05:14.862Z,101342.02
2023-05-31T06:07:27.349Z,101340.09
2023-05-31T06:09:40.247Z,101336.59
2023-05-31T06:11:54.189Z,101334.52
2023-05-31T06:14:11.103Z,101336.97
2023-05-31T06:16:28.281Z,101334.14
2023-05-31T06:18:41.626Z,101343.39
2023-05-31T06:20:56.067Z,101339.95
2023-05-31T06:23:09.712Z,101340.16
2023-05-31T06:25:22.933Z,101340.45
2023-05-31T06:27:36.402Z,101337.20
2023-05-31T06:29:49.439Z,101341.33
2023-05-31T06:32:07.680Z,101343.68
2023-05-31T06:34:23.287Z,101344.08
2023-05-31T06:36:38.303Z,101345.48
2023-05-31T06:38:50.872Z,101347.36
2023-05-31T06:41:03.716Z,101346.88
2023-05-31T06:43:17.683Z,101349.33
2023-05-31T06:45:50.642Z,101348.45
2023-05-31T06:48:03.253Z,101345.02
2023-05-31T06:50:22.278Z,101350.89
2023-05-31T06:52:38.051Z,101351.02
2023-05-31T06:55:09.993Z,101349.69
2023-05-31T06:57:23.894Z,101349.30
2023-05-31T06:59:36.758Z,101340.91
2023-05-31T07:01:49.400Z,101346.34
2023-05-31T07:04:02.256Z,101346.15
2023-05-31T07:06:15.139Z,101347.69
2023-05-31T07:08:27.907Z,101345.64
2023-05-31T07:11:14.363Z,101341.30
2023-05-31T07:13:27.414Z,101344.90
2023-05-31T07:15:40.557Z,101340.81
2023-05-31T07:17:53.211Z,101344.00
2023-05-31T07:20:07.187Z,101346.47
2023-05-31T07:22:21.224Z,101351.36
2023-05-31T07:24:34.313Z,101353.91
2023-05-31T07:26:48.928Z,101357.40
2023-05-31T07:29:01.671Z,101358.40
2023-05-31T07:31:14.778Z,101364.14
2023-05-31T07:33:28.816Z,101361.98
2023-05-31T07:35:42.027Z,101361.80
2023-05-31T07:37:54.458Z,101368.27
2023-05-31T07:40:08.986Z,101366.19
2023-05-31T07:42:22.089Z,101364.52
2023-05-31T07:44:35.144Z,101365.69
2023-05-31T07:46:47.619Z,101368.14
2023-05-31T07:49:00.235Z,101370.25
2023-05-31T07:51:12.964Z,101372.91
2023-05-31T07:53:25.729Z,101375.49
2023-05-31T07:55:39.459Z,101376.30
2023-05-31T07:57:52.316Z,101379.20
2023-05-31T08:00:05.612Z,101380.48
2023-05-31T08:02:24.205Z,101381.29
2023-05-31T08:04:37.368Z,101381.05
2023-05-31T08:06:52.639Z,101383.58
2023-05-31T08:09:05.478Z,101382.54
2023-05-31T08:11:18.386Z,101379.98
2023-05-31T08:13:32.677Z,101381.96
2023-05-31T08:15:45.742Z,101382.08
2023-05-31T08:18:01.376Z,101382.31
2023-05-31T08:20:18.222Z,101382.42
2023-05-31T08:22:31.111Z,101381.08
2023-05-31T08:24:43.717Z,101383.86
2023-05-31T08:26:56.120Z,101383.86
2023-05-31T08:29:09.342Z,101381.46
2023-05-31T08:31:22.425Z,101381.85
2023-05-31T08:33:36.325Z,101386.84
2023-05-31T08:35:49.102Z,101388.50
2023-05-31T08:38:02.816Z,101385.42
2023-05-31T08:40:16.332Z,101385.44
2023-05-31T08:42:32.685Z,101385.76
2023-05-31T08:44:46.186Z,101387.48
2023-05-31T08:47:01.569Z,101388.13
2023-05-31T08:49:18.214Z,101386.87
2023-05-31T08:51:32.821Z,101385.50
2023-05-31T08:53:45.563Z,101390.69
2023-05-31T08:55:58.886Z,101387.45
2023-05-31T08:58:12.740Z,101390.23
2023-05-31T09:00:26.485Z,101392.73
2023-05-31T09:02:40.384Z,101387.77
2023-05-31T09:04:54.441Z,101390.67
2023-05-31T09:07:07.465Z,101394.40
2023-05-31T09:09:21.375Z,101393.88
2023-05-31T09:11:34.090Z,101400.78
2023-05-31T09:13:47.724Z,101401.55
2023-05-31T09:16:01.777Z,101399.41
2023-05-31T09:18:23.712Z,101400.23
2023-05-31T09:20:39.562Z,101402.55
2023-05-31T09:22:55.550Z,101409.70
2023-05-31T09:25:09.224Z,101408.45
2023-05-31T09:27:21.878Z,101408.61
2023-05-31T09:29:34.373Z,101409.31
2023-05-31T09:31:47.230Z,101409.89
2023-05-31T09:34:00.246Z,101411.42
2023-05-31T09:36:13.333Z,101412.89
2023-05-31T09:38:35.182Z,101415.74
2023-05-31T09:40:50.196Z,101413.11
2023-05-31T09:43:02.911Z,101416.29
2023-05-31T09:45:17.880Z,101416.91
2023-05-31T09:47:33.368Z,101418.05
2023-05-31T09:49:46.524Z,101417.89
2023-05-31T09:52:00.510Z,101421.48
2023-05-31T09:54:19.436Z,101421.00
2023-05-31T09:56:32.546Z,101418.14
2023-05-31T09:58:46.024Z,101420.70
2023-05-31T10:04:18.816Z,101426.48
2023-05-31T10:06:32.092Z,101420.81
2023-05-31T10:08:46.549Z,101421.90
2023-05-31T10:11:02.089Z,101421.84
2023-05-31T10:13:18.057Z,101421.89
2023-05-31T10:15:31.493Z,101420.00
2023-05-31T10:17:47.357Z,101421.96
2023-05-31T10:20:04.158Z,101422.55
2023-05-31T10:22:19.640Z,101426.10
2023-05-31T10:24:35.361Z,101425.92
2023-05-31T10:26:55.763Z,101427.17
2023-05-31T10:29:18.286Z,101426.65
2023-05-31T10:31:38.051Z,101425.21
2023-05-31T10:33:59.070Z,101423.86
2023-05-31T10:36:13.513Z,101429.33
2023-05-31T10:38:31.422Z,101424.43
2023-05-31T10:40:51.464Z,101423.27
2023-05-31T10:43:10.192Z,101425.00
2023-05-31T10:45:27.616Z,101430.59
2023-05-31T10:47:46.934Z,101432.85
2023-05-31T10:50:00.202Z,101435.83
2023-05-31T10:52:16.932Z,101437.77
2023-05-31T10:54:36.146Z,101440.84
2023-05-31T10:56:58.825Z,101443.81
2023-05-31T10:59:13.166Z,101445.77
2023-05-31T11:01:26.450Z,101448.40
2023-05-31T11:03:41.160Z,101452.02
2023-05-31T11:06:03.732Z,101450.04
2023-05-31T11:08:19.474Z,101448.55
2023-05-31T11:10:36.416Z,101444.69
2023-05-31T11:12:48.925Z,101449.25
2023-05-31T11:15:10.123Z,101444.91
2023-05-31T11:17:23.660Z,101449.13
2023-05-31T11:19:38.481Z,101447.41
2023-05-31T11:21:54.990Z,101450.80
2023-05-31T11:24:09.964Z,101451.66
2023-05-31T11:26:25.942Z,101447.71
2023-05-31T11:28:53.907Z,101451.52
2023-05-31T11:31:06.894Z,101452.41
2023-05-31T11:33:25.768Z,101453.84
2023-05-31T11:35:39.880Z,101449.95
2023-05-31T11:37:53.952Z,101447.06
2023-05-31T11:40:08.854Z,101446.92
2023-05-31T11:42:22.052Z,101450.35
2023-05-31T11:44:38.784Z,101450.16
2023-05-31T11:46:53.577Z,101449.02
2023-05-31T11:49:06.020Z,101454.17
2023-05-31T11:51:20.489Z,101451.37
2023-05-31T11:53:33.252Z,101450.54
2023-05-31T11:55:52.074Z,101448.10
2023-05-31T11:58:05.270Z,101451.90
2023-05-31T12:00:23.480Z,101454.17
2023-05-31T12:02:35.941Z,101457.89
2023-05-31T12:04:49.778Z,101463.24
2023-05-31T12:07:02.840Z,101466.26
2023-05-31T12:09:17.746Z,101467.89
2023-05-31T12:11:31.773Z,101467.02
2023-05-31T12:13:44.472Z,101470.95
2023-05-31T12:16:00.281Z,101474.54
2023-05-31T12:18:13.324Z,101473.02
2023-05-31T12:20:25.980Z,101474.59
2023-05-31T12:22:38.513Z,101476.77
2023-05-31T12:24:57.307Z,101480.52
2023-05-31T12:27:11.320Z,101483.86
2023-05-31T12:29:29.905Z,101483.55
2023-05-31T12:31:43.966Z,101484.14
2023-05-31T12:34:10.009Z,101487.83
2023-05-31T12:36:23.775Z,101492.91
2023-05-31T12:38:37.134Z,101494.77
2023-05-31T12:40:50.918Z,101497.33
2023-05-31T12:43:09.144Z,101501.64
2023-05-31T12:45:24.423Z,101496.92
2023-05-31T12:47:37.717Z,101501.81
2023-05-31T12:49:50.655Z,101501.38
2023-05-31T12:52:08.038Z,101500.25
2023-05-31T12:54:22.860Z,101508.04
2023-05-31T12:56:35.453Z,101508.46
2023-05-31T12:58:48.565Z,101512.52
2023-05-31T13:01:02.061Z,101509.82
2023-05-31T13:03:16.282Z,101506.52
2023-05-31T13:05:29.660Z,101506.26
2023-05-31T13:07:42.910Z,101501.91
2023-05-31T13:09:55.976Z,101505.39
2023-05-31T13:12:09.041Z,101508.16
2023-05-31T13:14:26.211Z,101505.41
2023-05-31T13:16:40.645Z,101508.97
2023-05-31T13:18:53.630Z,101510.33
2023-05-31T13:21:06.193Z,101509.06
2023-05-31T13:23:18.651Z,101510.70
2023-05-31T13:25:31.357Z,101518.54
2023-05-31T13:27:43.996Z,101520.74
2023-05-31T13:29:56.753Z,101521.94
2023-05-31T13:32:09.709Z,101519.42
2023-05-31T13:34:22.402Z,101518.48
2023-05-31T13:36:35.230Z,101520.01
2023-05-31T13:38:48.027Z,101524.09
2023-05-31T13:41:01.314Z,101527.27
2023-05-31T13:43:14.403Z,101528.98
2023-05-31T13:45:27.395Z,101530.83
2023-05-31T13:47:40.306Z,101531.90
2023-05-31T13:49:53.142Z,101532.51
2023-05-31T13:52:07.173Z,101536.05
2023-05-31T13:54:20.233Z,101538.04
2023-05-31T13:56:32.995Z,101541.08
2023-05-31T13:58:45.848Z,101539.97
2023-05-31T14:00:58.966Z,101543.43
2023-05-31T14:03:12.601Z,101544.73
2023-05-31T14:05:27.890Z,101550.64
2023-05-31T14:07:40.323Z,101553.67
2023-05-31T14:09:53.121Z,101554.80
2023-05-31T14:12:05.691Z,101557.44
2023-05-31T14:14:18.624Z,101558.90
2023-05-31T14:16:31.909Z,101559.63
2023-05-31T14:18:44.358Z,101557.81
2023-05-31T14:20:57.990Z,101555.17
2023-05-31T14:23:11.328Z,101551.52
2023-05-31T14:25:24.385Z,101552.81
2023-05-31T14:27:36.987Z,101554.84
2023-05-31T14:29:49.517Z,101553.63
2023-05-31T14:32:02.520Z,101550.95
2023-05-31T14:34:19.954Z,101552.16
2023-05-31T14:36:33.066Z,101553.67
2023-05-31T14:38:46.046Z,101552.89
2023-05-31T14:40:58.625Z,101548.73
2023-05-31T14:43:11.705Z,101550.48
2023-05-31T14:45:24.233Z,101547.88
2023-05-31T14:47:38.572Z,101551.19
2023-05-31T14:49:51.203Z,101553.63
2023-05-31T14:52:03.903Z,101554.02
2023-05-31T14:54:17.073Z,101555.02
2023-05-31T14:56:30.095Z,101552.91
2023-05-31T14:58:42.692Z,101556.95
2023-05-31T15:00:55.464Z,101554.23
2023-05-31T15:03:08.299Z,101557.80
2023-05-31T15:05:21.085Z,101559.59
2023-05-31T15:07:33.856Z,101562.04
2023-05-31T15:09:46.518Z,101562.09
2023-05-31T15:11:59.245Z,101561.13
2023-05-31T15:14:12.229Z,101567.74
2023-05-31T15:16:24.916Z,101571.80
2023-05-31T15:18:37.639Z,101576.52
2023-05-31T15:20:51.053Z,101576.11
2023-05-31T15:23:03.599Z,101581.66
2023-05-31T15:25:17.210Z,101583.77
2023-05-31T15:27:29.887Z,101584.33
2023-05-31T15:29:43.146Z,101586.44
2023-05-31T15:31:59.108Z,101588.41
2023-05-31T15:34:12.436Z,101583.70
2023-05-31T15:36:25.038Z,101584.91
2023-05-31T15:38:37.623Z,101585.36
2023-05-31T15:40:51.329Z,101584.41
2023-05-31T15:43:03.781Z,101583.20
2023-05-31T15:45:17.297Z,101578.59
2023-05-31T15:47:30.367Z,101578.34
2023-05-31T15:49:43.767Z,101579.27
2023-05-31T15:51:57.494Z,101576.34
2023-05-31T15:54:10.529Z,101575.59
2023-05-31T15:56:23.418Z,101578.70
2023-05-31T15:58:36.209Z,101582.11
2023-05-31T16:00:52.043Z,101581.28
2023-05-31T16:03:05.026Z,101580.25
2023-05-31T16:05:19.305Z,101582.67
2023-05-31T16:07:32.342Z,101584.18
2023-05-31T16:09:45.029Z,101587.08
2023-05-31T16:11:58.334Z,101587.36
2023-05-31T16:14:11.134Z,101585.77
2023-05-31T16:16:24.103Z,101581.21
2023-05-31T16:18:36.887Z,101579.52
2023-05-31T16:20:49.676Z,101576.02
2023-05-31T16:23:02.649Z,101569.17
2023-05-31T16:25:15.785Z,101571.86
2023-05-31T16:27:28.488Z,101568.82
2023-05-31T16:29:41.505Z,101572.70
2023-05-31T16:31:54.940Z,101573.64
2023-05-31T16:34:07.859Z,101575.98
2023-05-31T16:36:20.844Z,101571.11
2023-05-31T16:38:33.406Z,101572.05
2023-05-31T16:40:46.116Z,101575.88
2023-05-31T16:42:59.100Z,101568.83
2023-05-31T16:45:13.073Z,101571.67
2023-05-31T16:47:25.958Z,101571.14
2023-05-31T16:49:38.407Z,101577.36
2023-05-31T16:51:53.708Z,101577.08
2023-05-31T16:54:07.631Z,101579.35
2023-05-31T16:56:21.000Z,101579.92
2023-05-31T16:58:33.990Z,101581.45
2023-05-31T17:00:47.917Z,101579.29
2023-05-31T17:03:03.413Z,101577.31
2023-05-31T17:05:18.000Z,101582.06
2023-05-31T17:07:31.455Z,101581.24
2023-05-31T17:09:45.018Z,101580.42
2023-05-31T17:11:58.129Z,101577.57
2023-05-31T17:14:10.907Z,101579.02
2023-05-31T17:16:24.011Z,101573.02
2023-05-31T17:18:36.748Z,101573.99
2023-05-31T17:20:49.597Z,101576.71
2023-05-31T17:23:02.350Z,101573.87
2023-05-31T17:25:17.205Z,101579.94
2023-05-31T17:27:29.987Z,101577.91
2023-05-31T17:29:42.893Z,101575.23
2023-05-31T17:31:55.865Z,101574.23
2023-05-31T17:34:08.871Z,101566.94
2023-05-31T17:36:21.948Z,101562.41
2023-05-31T17:38:34.898Z,101569.06
2023-05-31T17:40:47.805Z,101566.48
2023-05-31T17:43:00.990Z,101562.59
2023-05-31T17:45:15.388Z,101564.23
2023-05-31T17:47:28.841Z,101566.81
2023-05-31T17:49:42.015Z,101567.45
2023-05-31T17:51:55.108Z,101569.89
2023-05-31T17:54:08.058Z,101571.23
2023-05-31T17:56:20.610Z,101567.66
2023-05-31T17:58:33.169Z,101567.03
2023-05-31T18:00:45.803Z,101566.80
2023-05-31T18:02:58.504Z,101568.67
2023-05-31T18:05:12.345Z,101568.04
2023-05-31T18:07:27.746Z,101565.29
2023-05-31T18:09:41.561Z,101561.28
2023-05-31T18:11:54.714Z,101558.59
2023-05-31T18:14:07.897Z,101562.13
2023-05-31T18:16:20.866Z,101560.51
2023-05-31T18:18:34.082Z,101558.20
2023-05-31T18:20:47.788Z,101553.56
2023-05-31T18:23:01.015Z,101555.36
2023-05-31T18:25:14.323Z,101556.48
2023-05-31T18:27:28.125Z,101554.77
2023-05-31T18:29:40.966Z,101549.97
2023-05-31T18:31:53.841Z,101550.27
2023-05-31T18:34:06.478Z,101549.72
2023-05-31T18:36:18.916Z,101547.67
2023-05-31T18:38:33.775Z,101549.92
2023-05-31T18:40:46.730Z,101546.52
2023-05-31T18:42:59.176Z,101547.44
2023-05-31T18:45:14.405Z,101547.83
2023-05-31T18:47:28.632Z,101543.42
2023-05-31T18:49:41.407Z,101543.03
2023-05-31T18:51:54.068Z,101540.10
2023-05-31T18:54:06.698Z,101538.08
2023-05-31T18:56:19.823Z,101537.21
2023-05-31T18:58:33.106Z,101534.54
2023-05-31T19:00:48.003Z,101534.70
2023-05-31T19:03:00.978Z,101541.41
2023-05-31T19:05:14.978Z,101539.11
2023-05-31T19:07:28.424Z,101530.77
2023-05-31T19:09:41.722Z,101526.35
2023-05-31T19:11:55.822Z,101526.95
2023-05-31T19:14:08.628Z,101524.91
2023-05-31T19:16:21.841Z,101528.13
2023-05-31T19:18:34.904Z,101524.20
2023-05-31T19:20:50.183Z,101520.70
2023-05-31T19:23:03.150Z,101516.68
2023-05-31T19:25:16.390Z,101513.83
2023-05-31T19:27:29.409Z,101513.97
2023-05-31T19:29:42.383Z,101508.73
2023-05-31T19:31:55.450Z,101506.77
2023-05-31T19:34:08.340Z,101509.85
2023-05-31T19:36:20.946Z,101506.21
2023-05-31T19:38:34.138Z,101504.48
2023-05-31T19:40:46.622Z,101504.81
2023-05-31T19:42:59.346Z,101502.11
2023-05-31T19:45:13.332Z,101500.88
2023-05-31T19:47:26.517Z,101499.14
2023-05-31T19:49:41.460Z,101492.88
2023-05-31T19:51:54.082Z,101496.94
2023-05-31T19:54:07.028Z,101500.52
2023-05-31T19:56:19.917Z,101498.61
2023-05-31T19:58:32.494Z,101498.77
2023-05-31T20:00:45.086Z,101497.67
2023-05-31T20:02:58.173Z,101494.48
2023-05-31T20:05:12.671Z,101495.05
2023-05-31T20:07:25.409Z,101492.42
2023-05-31T20:09:39.446Z,101488.70
2023-05-31T20:11:53.121Z,101479.73
2023-05-31T20:14:08.502Z,101482.43
2023-05-31T20:16:21.434Z,101482.45
2023-05-31T20:18:34.170Z,101477.38
2023-05-31T20:20:46.602Z,101471.41
2023-05-31T20:22:59.422Z,101473.54
2023-05-31T20:25:13.365Z,101468.59
2023-05-31T20:27:26.180Z,101467.45
2023-05-31T20:29:39.999Z,101464.92
2023-05-31T20:31:53.388Z,101466.56
2023-05-31T20:34:07.497Z,101463.46
2023-05-31T20:36:19.964Z,101461.70
2023-05-31T20:38:33.023Z,101459.09
2023-05-31T20:40:45.751Z,101456.08
2023-05-31T20:42:58.913Z,101453.38
2023-05-31T20:45:13.524Z,101451.64
2023-05-31T20:47:26.456Z,101448.86
2023-05-31T20:49:39.650Z,101450.06
2023-05-31T20:51:52.432Z,101447.29
2023-05-31T20:54:05.381Z,101442.20
2023-05-31T20:56:18.394Z,101439.26
2023-05-31T20:58:31.900Z,101438.30
2023-05-31T21:00:45.083Z,101427.10
2023-05-31T21:02:58.651Z,101426.10
2023-05-31T21:05:12.221Z,101424.96
2023-05-31T21:07:24.962Z,101427.96
2023-05-31T21:09:38.960Z,101423.49
2023-05-31T21:11:53.999Z,101421.41
2023-05-31T21:14:06.547Z,101417.84
2023-05-31T21:16:19.614Z,101416.56
2023-05-31T21:18:32.637Z,101412.83
2023-05-31T21:20:45.337Z,101411.00
2023-05-31T21:22:58.228Z,101413.70
2023-05-31T21:25:11.730Z,101410.05
2023-05-31T21:27:24.405Z,101408.39
2023-05-31T21:29:37.070Z,101405.30
2023-05-31T21:31:49.597Z,101407.72
2023-05-31T21:34:02.343Z,101406.52
2023-05-31T21:36:15.155Z,101408.52
2023-05-31T21:38:27.898Z,101411.01
2023-05-31T21:40:40.423Z,101408.23
2023-05-31T21:42:53.849Z,101404.26
2023-05-31T21:45:06.377Z,101400.37
2023-05-31T21:47:19.646Z,101401.91
2023-05-31T21:49:33.197Z,101402.39
2023-05-31T21:51:45.857Z,101397.85
2023-05-31T21:53:58.935Z,101397.98
2023-05-31T21:56:12.178Z,101390.52
2023-05-31T21:58:24.912Z,101397.34
2023-05-31T22:00:37.924Z,101394.65
2023-05-31T22:02:50.660Z,101402.20
2023-05-31T22:05:03.587Z,101401.01
2023-05-31T22:07:16.350Z,101396.02
2023-05-31T22:09:28.840Z,101394.21
2023-05-31T22:11:41.551Z,101393.49
2023-05-31T22:13:54.705Z,101390.64
2023-05-31T22:16:07.682Z,101387.89
2023-05-31T22:18:22.373Z,101390.13
2023-05-31T22:20:36.687Z,101387.82
2023-05-31T22:22:49.919Z,101384.81
2023-05-31T22:25:13.496Z,101385.75
2023-05-31T22:27:27.840Z,101387.94
2023-05-31T22:29:40.462Z,101384.64
2023-05-31T22:31:53.423Z,101381.30
2023-05-31T22:34:06.272Z,101378.23
2023-05-31T22:36:19.161Z,101381.17
2023-05-31T22:38:31.708Z,101379.58
2023-05-31T22:40:45.232Z,101373.74
2023-05-31T22:42:58.326Z,101371.27
2023-05-31T22:45:12.163Z,101369.07
2023-05-31T22:47:24.888Z,101366.31
2023-05-31T22:49:38.506Z,101367.67
2023-05-31T22:51:52.110Z,101366.31
2023-05-31T22:54:04.879Z,101363.60
2023-05-31T22:56:17.713Z,101368.97
2023-05-31T22:58:30.164Z,101367.11
2023-05-31T23:00:42.960Z,101361.53
2023-05-31T23:02:56.175Z,101355.28
2023-05-31T23:05:10.589Z,101354.44
2023-05-31T23:07:25.745Z,101351.06
2023-05-31T23:09:39.358Z,101352.56
2023-05-31T23:11:54.231Z,101351.61
2023-05-31T23:14:07.795Z,101353.43
2023-05-31T23:16:21.022Z,101351.75
2023-05-31T23:18:34.826Z,101352.61
2023-05-31T23:20:48.363Z,101350.48
2023-05-31T23:23:01.411Z,101349.54
2023-05-31T23:25:15.173Z,101351.20
2023-05-31T23:27:28.334Z,101347.97
2023-05-31T23:29:42.993Z,101348.08
2023-05-31T23:31:55.784Z,101345.39
2023-05-31T23:34:08.339Z,101340.75
2023-05-31T23:36:21.742Z,101341.51
2023-05-31T23:38:34.470Z,101334.70
2023-05-31T23:40:47.309Z,101335.66
2023-05-31T23:43:00.547Z,101333.52
2023-05-31T23:45:15.933Z,101332.38
2023-05-31T23:47:28.984Z,101332.63
2023-05-31T23:49:41.732Z,101333.27
2023-05-31T23:51:56.549Z,101333.19
2023-05-31T23:54:11.872Z,101333.35
2023-05-31T23:56:24.991Z,101332.60
2023-05-31T23:58:37.766Z,101332.21
